M/V Patriot — WDG2884 — position and weather

sailwx.info

Track history (hours):
 
Tides and Currents Weather Stations Pressure Air Temp Water Temp Dewpoint Dewpoint Depression Visibility Wind Speed Wind Dir Waves Ship Positions

M/V Patriot

Owner: Enterprise Marine Services, LLC, San Antonio, TX. More information available from US FCC via Universal Licensing System and Coast Guard Vessel Documentation Center.

Last reported at 2017-Sep-24 11:23 UTC. Time now 2017-Sep-24 19:23 UTC.
Position N 29°57' W 090°23'.

Length 33 m; draft 2.9 m.

Type: Ship (hazmat cat A). MMSI: 367520270.

Date/timePositionNaut miles runAvg speedWind from/ knotsBaromVisibWave heightAir tempDewpointWater temp
2017-Sep-24 11:23N 29°57' W 090°23'  
2017-Sep-21 20:00N 29°56' W 093°06'3 5.1
2017-Sep-21 19:27N 29°56' W 093°09'2 4.1
2017-Sep-21 19:00N 29°57' W 093°11'3 5.1
2017-Sep-21 18:30N 29°59' W 093°13'2 4.7
2017-Sep-21 18:00N 30°01' W 093°14'2 4.6
2017-Sep-21 17:30N 30°03' W 093°16'2 4.6
2017-Sep-21 17:00N 30°05' W 093°17'1 1.2
2017-Sep-21 16:24N 30°05' W 093°18'0 0.0
2017-Sep-21 16:00N 30°05' W 093°18'0 0.0
2017-Sep-21 15:30N 30°05' W 093°18'0 0.0
2017-Sep-21 15:00N 30°05' W 093°18'0 0.6
2017-Sep-21 14:30N 30°05' W 093°18'2 3.8
2017-Sep-21 14:00N 30°05' W 093°20'2 3.9
2017-Sep-21 13:30N 30°04' W 093°22'3 5.5
2017-Sep-21 13:00N 30°04' W 093°25'3 6.3
2017-Sep-21 12:30N 30°04' W 093°28'3 6.4
2017-Sep-21 12:00N 30°04' W 093°32'3 6.5
2017-Sep-21 11:30N 30°04' W 093°36'3 6.4
2017-Sep-21 11:00N 30°04' W 093°40'3 6.0
2017-Sep-21 10:30N 30°03' W 093°43'69 3.8
2017-Sep-20 16:16N 29°29' W 094°51'2 8.9
2017-Sep-20 16:00N 29°31' W 094°53'4 8.3
2017-Sep-20 15:30N 29°34' W 094°55'4 8.8
2017-Sep-20 15:00N 29°38' W 094°58'8 7.8
2017-Sep-20 14:00N 29°44' W 095°03'3 5.8
2017-Sep-20 13:30N 29°44' W 095°06'3 5.7
2017-Sep-20 13:00N 29°45' W 095°10'3 5.2
2017-Sep-20 12:29N 29°44' W 095°07'4 6.6
2017-Sep-20 11:54N 29°47' W 095°04'0 0.5
2017-Sep-20 11:30N 29°47' W 095°04'1 0.1
2017-Sep-20 03:02N 29°47' W 095°04'0 4.5
2017-Sep-20 03:00N 29°47' W 095°04'1 0.2
2017-Sep-19 20:17N 29°46' W 095°05'1 3.3
2017-Sep-19 20:00N 29°45' W 095°06'0 0.5
2017-Sep-19 19:25N 29°45' W 095°06'  
2017-Sep-14 20:03N 29°47' W 095°04'0 6.1
2017-Sep-14 20:00N 29°47' W 095°04'1 0.8
2017-Sep-14 18:28N 29°46' W 095°05'  
Track history (hours):
 
Tides and Currents Weather Stations Pressure Air Temp Water Temp Dewpoint Dewpoint Depression Visibility Wind Speed Wind Dir Waves Ship Positions

M/V Patriot

Owner: Enterprise Marine Services, LLC, San Antonio, TX. More information available from US FCC via Universal Licensing System and Coast Guard Vessel Documentation Center.

Last reported at 2017-Sep-24 11:23 UTC. Time now 2017-Sep-24 19:23 UTC.
Position N 29°57' W 090°23'.

Length 33 m; draft 2.9 m.

Type: Ship (hazmat cat A). MMSI: 367520270.

Date/timePositionNaut miles runAvg speedWind from/ knotsBaromVisibWave heightAir tempDewpointWater temp
2017-Sep-24 11:23N 29°57' W 090°23'  
2017-Sep-21 20:00N 29°56' W 093°06'3 5.1
2017-Sep-21 19:27N 29°56' W 093°09'2 4.1
2017-Sep-21 19:00N 29°57' W 093°11'3 5.1
2017-Sep-21 18:30N 29°59' W 093°13'2 4.7
2017-Sep-21 18:00N 30°01' W 093°14'2 4.6
2017-Sep-21 17:30N 30°03' W 093°16'2 4.6
2017-Sep-21 17:00N 30°05' W 093°17'1 1.2
2017-Sep-21 16:24N 30°05' W 093°18'0 0.0
2017-Sep-21 16:00N 30°05' W 093°18'0 0.0
2017-Sep-21 15:30N 30°05' W 093°18'0 0.0
2017-Sep-21 15:00N 30°05' W 093°18'0 0.6
2017-Sep-21 14:30N 30°05' W 093°18'2 3.8
2017-Sep-21 14:00N 30°05' W 093°20'2 3.9
2017-Sep-21 13:30N 30°04' W 093°22'3 5.5
2017-Sep-21 13:00N 30°04' W 093°25'3 6.3
2017-Sep-21 12:30N 30°04' W 093°28'3 6.4
2017-Sep-21 12:00N 30°04' W 093°32'3 6.5
2017-Sep-21 11:30N 30°04' W 093°36'3 6.4
2017-Sep-21 11:00N 30°04' W 093°40'3 6.0
2017-Sep-21 10:30N 30°03' W 093°43'69 3.8
2017-Sep-20 16:16N 29°29' W 094°51'2 8.9
2017-Sep-20 16:00N 29°31' W 094°53'4 8.3
2017-Sep-20 15:30N 29°34' W 094°55'4 8.8
2017-Sep-20 15:00N 29°38' W 094°58'8 7.8
2017-Sep-20 14:00N 29°44' W 095°03'3 5.8
2017-Sep-20 13:30N 29°44' W 095°06'3 5.7
2017-Sep-20 13:00N 29°45' W 095°10'3 5.2
2017-Sep-20 12:29N 29°44' W 095°07'4 6.6
2017-Sep-20 11:54N 29°47' W 095°04'0 0.5
2017-Sep-20 11:30N 29°47' W 095°04'1 0.1
2017-Sep-20 03:02N 29°47' W 095°04'0 4.5
2017-Sep-20 03:00N 29°47' W 095°04'1 0.2
2017-Sep-19 20:17N 29°46' W 095°05'1 3.3
2017-Sep-19 20:00N 29°45' W 095°06'0 0.5
2017-Sep-19 19:25N 29°45' W 095°06'  
2017-Sep-14 20:03N 29°47' W 095°04'0 6.1
2017-Sep-14 20:00N 29°47' W 095°04'1 0.8
2017-Sep-14 18:28N 29°46' W 095°05'  

Dump ship's entire track history